createdAt,value
2022-08-12T00:00:44.189Z,2.05
2022-08-12T00:03:29.196Z,2.10
2022-08-12T00:06:15.477Z,2.03
2022-08-12T00:09:00.736Z,1.90
2022-08-12T00:11:46.555Z,2.20
2022-08-12T00:14:32.564Z,2.10
2022-08-12T00:17:17.595Z,2.45
2022-08-12T00:20:02.371Z,2.20
2022-08-12T00:22:52.889Z,2.20
2022-08-12T00:26:21.254Z,2.00
2022-08-12T00:28:59.801Z,2.08
2022-08-12T00:31:44.964Z,1.88
2022-08-12T00:34:34.465Z,2.00
2022-08-12T00:37:19.546Z,2.35
2022-08-12T00:40:11.679Z,2.33
2022-08-12T00:42:40.489Z,1.92
2022-08-12T00:45:07.783Z,2.53
2022-08-12T00:47:35.438Z,2.17
2022-08-12T00:50:02.113Z,1.90
2022-08-12T00:52:28.563Z,2.10
2022-08-12T00:54:58.894Z,2.25
2022-08-12T00:57:31.633Z,1.80
2022-08-12T01:00:01.033Z,2.00
2022-08-12T01:02:29.558Z,2.20
2022-08-12T01:05:23.602Z,1.92
2022-08-12T01:08:08.764Z,2.15
2022-08-12T01:10:56.048Z,2.10
2022-08-12T01:13:22.952Z,2.03
2022-08-12T01:15:52.732Z,2.10
2022-08-12T01:18:20.963Z,2.15
2022-08-12T01:20:49.809Z,2.38
2022-08-12T01:23:28.339Z,1.95
2022-08-12T01:25:56.616Z,2.00
2022-08-12T01:28:24.600Z,2.20
2022-08-12T01:30:51.357Z,2.05
2022-08-12T01:33:18.515Z,2.08
2022-08-12T01:35:57.951Z,2.42
2022-08-12T01:38:36.143Z,2.30
2022-08-12T01:41:04.954Z,2.28
2022-08-12T01:43:32.204Z,2.10
2022-08-12T01:46:12.534Z,2.10
2022-08-12T01:49:13.437Z,2.17
2022-08-12T01:52:20.473Z,2.13
2022-08-12T01:54:38.636Z,2.25
2022-08-12T01:57:57.797Z,2.00
2022-08-12T02:00:18.267Z,2.40
2022-08-12T02:03:07.227Z,2.30
2022-08-12T02:06:09.248Z,2.20
2022-08-12T02:09:05.692Z,2.10
2022-08-12T02:12:06.201Z,2.10
2022-08-12T02:15:00.921Z,1.98
2022-08-12T02:17:55.042Z,2.17
2022-08-12T02:21:02.016Z,2.17
2022-08-12T02:23:28.799Z,2.30
2022-08-12T02:25:59.442Z,2.17
2022-08-12T02:28:26.167Z,2.60
2022-08-12T02:30:54.359Z,2.30
2022-08-12T02:33:21.025Z,2.63
2022-08-12T02:35:48.606Z,2.40
2022-08-12T02:38:15.973Z,2.30
2022-08-12T02:40:45.325Z,2.08
2022-08-12T02:43:23.871Z,2.42
2022-08-12T02:46:14.532Z,2.40
2022-08-12T02:48:58.214Z,2.38
2022-08-12T02:51:30.438Z,2.40
2022-08-12T02:54:04.466Z,3.03
2022-08-12T02:56:32.925Z,2.60
2022-08-12T02:59:00.322Z,2.60
2022-08-12T03:01:35.642Z,2.97
2022-08-12T03:04:20.230Z,2.70
2022-08-12T03:07:02.511Z,3.25
2022-08-12T03:09:38.178Z,2.80
2022-08-12T03:12:20.565Z,2.83
2022-08-12T03:14:51.669Z,2.92
2022-08-12T03:17:24.301Z,3.28
2022-08-12T03:20:09.952Z,2.60
2022-08-12T03:22:40.672Z,2.70
2022-08-12T03:25:12.745Z,3.10
2022-08-12T03:27:47.390Z,2.75
2022-08-12T03:30:13.918Z,2.55
2022-08-12T03:32:42.066Z,2.88
2022-08-12T03:35:40.682Z,2.63
2022-08-12T03:38:07.927Z,3.08
2022-08-12T03:41:04.268Z,2.85
2022-08-12T03:43:53.946Z,2.88
2022-08-12T03:46:42.672Z,3.05
2022-08-12T03:49:27.830Z,2.75
2022-08-12T03:52:16.667Z,2.80
2022-08-12T03:55:01.758Z,3.20
2022-08-12T03:57:48.642Z,3.08
2022-08-12T04:00:25.114Z,3.22
2022-08-12T04:03:01.482Z,2.80
2022-08-12T04:05:55.188Z,3.00
2022-08-12T04:08:17.320Z,3.35
2022-08-12T04:11:02.530Z,3.33
2022-08-12T04:13:28.996Z,3.53
2022-08-12T04:15:55.724Z,3.58
2022-08-12T04:18:23.566Z,3.28
2022-08-12T04:20:50.065Z,3.50
2022-08-12T04:23:17.014Z,3.53
2022-08-12T04:25:44.551Z,3.38
2022-08-12T04:28:13.631Z,3.50
2022-08-12T04:30:40.582Z,3.88
2022-08-12T04:33:09.616Z,3.70
2022-08-12T04:35:37.149Z,4.18
2022-08-12T04:38:05.336Z,3.97
2022-08-12T04:40:34.002Z,3.80
2022-08-12T04:43:01.497Z,3.88
2022-08-12T04:45:28.888Z,4.03
2022-08-12T04:47:55.346Z,3.72
2022-08-12T04:50:34.373Z,4.00
2022-08-12T04:53:05.352Z,3.92
2022-08-12T04:55:33.535Z,3.85
2022-08-12T04:58:00.226Z,4.22
2022-08-12T05:00:27.625Z,3.65
2022-08-12T05:02:54.309Z,4.07
2022-08-12T05:05:22.998Z,4.15
2022-08-12T05:07:54.211Z,3.95
2022-08-12T05:10:33.522Z,4.22
2022-08-12T05:13:07.393Z,4.15
2022-08-12T05:15:34.765Z,3.83
2022-08-12T05:18:19.476Z,4.60
2022-08-12T05:20:48.248Z,4.00
2022-08-12T05:23:20.287Z,4.45
2022-08-12T05:25:56.155Z,4.82
2022-08-12T05:28:24.281Z,4.53
2022-08-12T05:30:50.854Z,4.95
2022-08-12T05:33:17.264Z,4.35
2022-08-12T05:35:45.169Z,4.57
2022-08-12T05:38:32.285Z,4.60
2022-08-12T05:40:59.336Z,4.60
2022-08-12T05:43:26.439Z,4.88
2022-08-12T05:45:53.195Z,4.75
2022-08-12T05:48:19.613Z,4.60
2022-08-12T05:50:46.579Z,4.60
2022-08-12T05:53:13.423Z,4.38
2022-08-12T05:55:40.557Z,4.60
2022-08-12T05:58:08.133Z,3.47
2022-08-12T06:00:35.649Z,4.10
2022-08-12T06:03:03.183Z,3.55
2022-08-12T06:05:54.217Z,3.35
2022-08-12T06:08:22.265Z,3.33
2022-08-12T06:10:51.545Z,3.80
2022-08-12T06:13:28.425Z,3.95
2022-08-12T06:16:07.211Z,3.63
2022-08-12T06:18:33.767Z,3.85
2022-08-12T06:21:02.019Z,3.58
2022-08-12T06:23:29.637Z,3.65
2022-08-12T06:25:56.290Z,3.88
2022-08-12T06:28:22.786Z,3.88
2022-08-12T06:31:14.810Z,3.90
2022-08-12T06:33:59.448Z,4.10
2022-08-12T06:36:29.347Z,3.95
2022-08-12T06:38:56.375Z,3.60
2022-08-12T06:41:41.313Z,3.58
2022-08-12T06:44:27.968Z,4.20
2022-08-12T06:46:54.565Z,3.80
2022-08-12T06:49:23.609Z,3.42
2022-08-12T06:51:53.501Z,3.65
2022-08-12T06:54:31.228Z,3.40
2022-08-12T06:57:56.954Z,3.38
2022-08-12T06:59:46.114Z,3.85
2022-08-12T07:02:12.608Z,3.58
2022-08-12T07:04:39.664Z,3.72
2022-08-12T07:07:08.548Z,3.63
2022-08-12T07:10:04.463Z,3.35
2022-08-12T07:12:22.263Z,3.83
2022-08-12T07:14:51.271Z,3.42
2022-08-12T07:17:17.869Z,3.60
2022-08-12T07:19:45.426Z,3.10
2022-08-12T07:22:13.408Z,3.40
2022-08-12T07:24:39.868Z,3.67
2022-08-12T07:27:06.485Z,3.03
2022-08-12T07:29:58.310Z,3.70
2022-08-12T07:32:23.642Z,3.33
2022-08-12T07:34:50.286Z,2.85
2022-08-12T07:37:17.716Z,3.20
2022-08-12T07:39:51.010Z,3.10
2022-08-12T07:44:53.392Z,3.33
2022-08-12T07:47:19.826Z,2.92
2022-08-12T07:50:04.480Z,3.13
2022-08-12T07:52:33.093Z,3.05
2022-08-12T07:55:00.037Z,3.10
2022-08-12T07:57:26.557Z,3.10
2022-08-12T07:59:55.530Z,3.42
2022-08-12T08:02:26.435Z,3.42
2022-08-12T08:04:56.930Z,3.13
2022-08-12T08:07:25.735Z,2.60
2022-08-12T08:09:58.690Z,2.80
2022-08-12T08:12:47.890Z,2.70
2022-08-12T08:15:15.616Z,2.67
2022-08-12T08:18:01.332Z,2.70
2022-08-12T08:20:33.854Z,2.40
2022-08-12T08:23:06.102Z,2.53
2022-08-12T08:25:36.386Z,3.05
2022-08-12T08:28:09.370Z,2.87
2022-08-12T08:30:38.771Z,2.38
2022-08-12T08:33:24.644Z,2.67
2022-08-12T08:35:55.589Z,2.47
2022-08-12T08:38:32.218Z,2.35
2022-08-12T08:42:18.109Z,2.50
2022-08-12T08:44:06.792Z,2.30
2022-08-12T08:46:37.325Z,1.88
2022-08-12T08:49:05.221Z,1.60
2022-08-12T08:51:31.767Z,1.60
2022-08-12T08:53:58.215Z,1.65
2022-08-12T08:56:24.704Z,1.50
2022-08-12T08:58:51.245Z,1.42
2022-08-12T09:01:22.495Z,1.60
2022-08-12T09:05:08.639Z,1.77
2022-08-12T09:06:37.752Z,1.50
2022-08-12T09:09:13.184Z,1.70
2022-08-12T09:12:10.619Z,1.38
2022-08-12T09:14:42.539Z,1.63
2022-08-12T09:17:13.876Z,1.50
2022-08-12T09:19:48.351Z,1.35
2022-08-12T09:22:18.501Z,1.50
2022-08-12T09:24:47.574Z,1.80
2022-08-12T09:27:16.881Z,1.65
2022-08-12T09:30:10.220Z,1.70
2022-08-12T09:33:05.081Z,1.70
2022-08-12T09:35:28.386Z,1.80
2022-08-12T09:37:58.661Z,1.67
2022-08-12T09:41:02.045Z,1.55
2022-08-12T09:43:37.014Z,1.67
2022-08-12T09:46:22.380Z,1.63
2022-08-12T09:48:56.589Z,1.70
2022-08-12T09:51:23.951Z,1.52
2022-08-12T09:54:08.638Z,1.80
2022-08-12T09:57:00.568Z,1.60
2022-08-12T10:00:13.313Z,1.90
2022-08-12T10:02:44.372Z,1.42
2022-08-12T10:05:00.462Z,1.70
2022-08-12T10:07:28.709Z,1.80
2022-08-12T10:10:06.505Z,1.58
2022-08-12T10:13:07.047Z,1.80
2022-08-12T10:16:02.179Z,1.63
2022-08-12T10:18:22.772Z,1.70
2022-08-12T10:20:52.869Z,1.83
2022-08-12T10:23:20.030Z,1.50
2022-08-12T10:26:37.591Z,1.50
2022-08-12T10:30:38.175Z,1.50
2022-08-12T10:32:45.361Z,1.65
2022-08-12T10:35:08.067Z,1.80
2022-08-12T10:38:39.021Z,1.50
2022-08-12T10:40:28.535Z,1.58
2022-08-12T10:43:16.722Z,1.67
2022-08-12T10:45:43.746Z,1.70
2022-08-12T10:48:21.555Z,1.70
2022-08-12T10:51:00.975Z,1.50
2022-08-12T10:53:44.344Z,1.60
2022-08-12T10:56:14.266Z,1.70
2022-08-12T10:58:41.032Z,1.70
2022-08-12T11:01:49.097Z,1.90
2022-08-12T11:04:31.293Z,1.70
2022-08-12T11:07:05.150Z,1.52
2022-08-12T11:09:55.567Z,1.70
2022-08-12T11:12:54.770Z,1.70
2022-08-12T11:15:14.779Z,1.63
2022-08-12T11:17:54.059Z,1.60
2022-08-12T11:20:24.526Z,1.63
2022-08-12T11:22:59.095Z,1.50
2022-08-12T11:25:56.381Z,1.50
2022-08-12T11:28:13.436Z,1.73
2022-08-12T11:30:40.229Z,1.65
2022-08-12T11:33:12.143Z,1.70
2022-08-12T11:35:41.503Z,1.58
2022-08-12T11:38:10.502Z,2.00
2022-08-12T11:40:37.058Z,1.30
2022-08-12T11:43:18.778Z,1.50
2022-08-12T11:45:47.117Z,1.73
2022-08-12T11:48:15.195Z,1.30
2022-08-12T11:50:44.794Z,1.70
2022-08-12T11:53:56.554Z,1.60
2022-08-12T11:55:57.677Z,1.33
2022-08-12T11:59:13.548Z,1.42
2022-08-12T12:02:02.847Z,1.60
2022-08-12T12:03:57.011Z,1.60
2022-08-12T12:06:25.017Z,1.60
2022-08-12T12:08:53.674Z,1.40
2022-08-12T12:11:21.466Z,1.40
2022-08-12T12:14:07.783Z,1.70
2022-08-12T12:16:38.349Z,1.70
2022-08-12T12:19:06.630Z,1.30
2022-08-12T12:21:48.515Z,1.70
2022-08-12T12:24:21.053Z,1.50
2022-08-12T12:26:48.286Z,1.42
2022-08-12T12:30:17.722Z,1.55
2022-08-12T12:32:14.905Z,1.77
2022-08-12T12:35:13.073Z,1.60
2022-08-12T12:38:03.350Z,1.52
2022-08-12T12:40:14.423Z,1.55
2022-08-12T12:42:42.553Z,1.45
2022-08-12T12:45:19.035Z,1.40
2022-08-12T12:47:59.676Z,1.25
2022-08-12T12:50:35.600Z,1.33
2022-08-12T12:53:09.134Z,1.70
2022-08-12T12:55:55.614Z,1.58
2022-08-12T12:58:22.068Z,1.50
2022-08-12T13:00:51.156Z,1.50
2022-08-12T13:03:19.030Z,1.55
2022-08-12T13:05:45.839Z,1.40
2022-08-12T13:08:28.612Z,1.48
2022-08-12T13:11:04.292Z,1.60
2022-08-12T13:14:06.950Z,1.20
2022-08-12T13:16:23.344Z,1.50
2022-08-12T13:18:50.895Z,1.42
2022-08-12T13:21:32.742Z,1.63
2022-08-12T13:24:10.032Z,1.52
2022-08-12T13:26:37.820Z,1.30
2022-08-12T13:29:04.270Z,1.50
2022-08-12T13:31:30.696Z,1.40
2022-08-12T13:34:33.878Z,1.42
2022-08-12T13:36:50.668Z,1.40
2022-08-12T13:39:20.413Z,1.45
2022-08-12T13:41:47.430Z,1.40
2022-08-12T13:44:16.401Z,1.42
2022-08-12T13:46:43.460Z,1.50
2022-08-12T13:49:11.641Z,1.35
2022-08-12T13:51:51.067Z,1.65
2022-08-12T13:54:19.481Z,1.30
2022-08-12T13:56:49.885Z,1.50
2022-08-12T14:01:51.752Z,1.55
2022-08-12T14:04:19.018Z,1.50
2022-08-12T14:06:50.418Z,1.58
2022-08-12T14:09:18.134Z,1.70
2022-08-12T14:11:59.091Z,1.52
2022-08-12T14:14:31.804Z,1.65
2022-08-12T14:17:05.625Z,1.52
2022-08-12T14:19:45.143Z,1.40
2022-08-12T14:22:20.080Z,1.55
2022-08-12T14:24:46.548Z,1.48
2022-08-12T14:27:13.606Z,1.50
2022-08-12T14:30:05.106Z,1.42
2022-08-12T14:32:34.657Z,1.63
2022-08-12T14:35:03.085Z,1.40
2022-08-12T14:37:57.205Z,1.50
2022-08-12T14:40:18.539Z,1.30
2022-08-12T14:42:46.772Z,1.60
2022-08-12T14:45:13.615Z,1.30
2022-08-12T14:47:47.855Z,1.42
2022-08-12T14:50:37.455Z,1.38
2022-08-12T14:59:23.415Z,1.20
2022-08-12T15:01:49.122Z,1.20
2022-08-12T15:04:17.269Z,1.40
2022-08-12T15:06:52.063Z,1.73
2022-08-12T15:09:19.248Z,1.60
2022-08-12T15:12:03.339Z,1.50
2022-08-12T15:14:30.570Z,1.42
2022-08-12T15:17:00.761Z,1.60
2022-08-12T15:20:11.292Z,1.67
2022-08-12T15:22:37.684Z,1.58
2022-08-12T15:25:03.770Z,1.30
2022-08-12T15:28:20.528Z,1.40
2022-08-12T15:30:22.850Z,1.70
2022-08-12T15:32:50.695Z,1.80
2022-08-12T15:35:17.381Z,1.70
2022-08-12T15:38:08.188Z,1.58
2022-08-12T15:40:31.484Z,1.83
2022-08-12T15:42:59.654Z,1.40
2022-08-12T15:45:27.593Z,1.50
2022-08-12T15:48:16.941Z,1.90
2022-08-12T15:50:46.257Z,1.45
2022-08-12T15:53:15.376Z,1.50
2022-08-12T15:55:45.847Z,1.40
2022-08-12T15:58:13.131Z,1.60
2022-08-12T16:00:43.233Z,1.75
2022-08-12T16:03:13.605Z,1.40
2022-08-12T16:06:19.531Z,1.45
2022-08-12T16:08:36.328Z,1.27
2022-08-12T16:11:14.458Z,1.33
2022-08-12T16:13:44.119Z,1.60
2022-08-12T16:16:22.681Z,1.60
2022-08-12T16:18:56.119Z,1.00
2022-08-12T16:21:51.229Z,1.08
2022-08-12T16:24:11.304Z,1.35
2022-08-12T16:26:38.238Z,1.25
2022-08-12T16:29:15.519Z,1.30
2022-08-12T16:31:43.335Z,1.50
2022-08-12T16:34:25.686Z,1.30
2022-08-12T16:37:03.126Z,1.20
2022-08-12T16:39:32.793Z,1.20
2022-08-12T16:42:22.490Z,1.10
2022-08-12T16:44:49.810Z,1.02
2022-08-12T16:47:18.618Z,1.33
2022-08-12T16:49:45.371Z,1.25
2022-08-12T16:52:14.401Z,1.17
2022-08-12T16:54:44.103Z,1.00
2022-08-12T16:57:11.179Z,1.02
2022-08-12T16:59:54.665Z,1.02
2022-08-12T17:02:33.844Z,1.08
2022-08-12T17:05:03.674Z,1.02
2022-08-12T17:07:36.712Z,1.20
2022-08-12T17:10:09.469Z,1.05
2022-08-12T17:12:38.725Z,1.20
2022-08-12T17:15:21.449Z,1.27
2022-08-12T17:18:38.889Z,0.98
2022-08-12T17:20:47.372Z,0.98
2022-08-12T17:23:16.444Z,0.70
2022-08-12T17:25:50.242Z,0.90
2022-08-12T17:28:18.216Z,1.02
2022-08-12T17:30:45.422Z,0.80
2022-08-12T17:33:24.948Z,0.95
2022-08-12T17:35:53.214Z,1.00
2022-08-12T17:38:20.999Z,0.80
2022-08-12T17:40:47.785Z,0.82
2022-08-12T17:43:52.196Z,0.95
2022-08-12T17:46:03.475Z,0.80
2022-08-12T17:48:34.168Z,0.80
2022-08-12T17:51:06.057Z,0.80
2022-08-12T17:54:05.942Z,0.65
2022-08-12T17:56:21.603Z,0.80
2022-08-12T17:58:57.979Z,0.80
2022-08-12T18:01:24.959Z,0.70
2022-08-12T18:04:20.865Z,0.70
2022-08-12T18:06:49.280Z,0.82
2022-08-12T18:12:07.399Z,0.85
2022-08-12T18:14:37.040Z,0.80
2022-08-12T18:17:08.288Z,1.08
2022-08-12T18:20:05.504Z,0.88
2022-08-12T18:22:30.871Z,0.98
2022-08-12T18:25:03.641Z,0.70
2022-08-12T18:27:44.121Z,0.70
2022-08-12T18:30:20.856Z,0.80
2022-08-12T18:35:52.888Z,0.80
2022-08-12T18:38:18.632Z,0.65
2022-08-12T18:41:06.106Z,0.80
2022-08-12T18:43:39.129Z,0.60
2022-08-12T18:46:22.713Z,0.75
2022-08-12T18:48:56.469Z,0.68
2022-08-12T18:51:45.561Z,0.70
2022-08-12T18:54:10.897Z,0.68
2022-08-12T18:56:40.564Z,0.70
2022-08-12T18:59:07.064Z,0.70
2022-08-12T19:02:19.916Z,0.68
2022-08-12T19:04:29.224Z,0.63
2022-08-12T19:06:59.130Z,0.80
2022-08-12T19:09:39.246Z,0.75
2022-08-12T19:12:42.762Z,0.80
2022-08-12T19:15:25.418Z,0.75
2022-08-12T19:18:00.736Z,0.90
2022-08-12T19:20:29.912Z,0.70
2022-08-12T19:23:02.038Z,0.90
2022-08-12T19:26:01.242Z,0.90
2022-08-12T19:28:29.908Z,0.90
2022-08-12T19:31:55.762Z,0.80
2022-08-12T19:34:55.853Z,0.80
2022-08-12T19:37:09.413Z,0.90
2022-08-12T19:40:08.063Z,0.50
2022-08-12T19:42:27.594Z,0.70
2022-08-12T19:44:55.693Z,0.73
2022-08-12T19:47:23.309Z,0.80
2022-08-12T19:49:53.315Z,1.20
2022-08-12T19:52:27.385Z,1.00
2022-08-12T19:54:56.223Z,1.02
2022-08-12T19:57:25.886Z,0.60
2022-08-12T20:00:03.639Z,0.68
2022-08-12T20:02:34.525Z,0.70
2022-08-12T20:06:05.451Z,0.73
2022-08-12T20:07:58.962Z,0.70
2022-08-12T20:10:35.427Z,0.77
2022-08-12T20:13:17.682Z,0.80
2022-08-12T20:15:45.554Z,0.60
2022-08-12T20:18:18.972Z,0.77
2022-08-12T20:20:59.048Z,0.85
2022-08-12T20:23:50.543Z,0.65
2022-08-12T20:26:16.906Z,0.75
2022-08-12T20:28:45.884Z,0.90
2022-08-12T20:31:13.292Z,0.70
2022-08-12T20:33:50.644Z,0.70
2022-08-12T20:36:41.721Z,0.75
2022-08-12T20:39:37.433Z,0.65
2022-08-12T20:42:07.030Z,0.75
2022-08-12T20:44:40.133Z,0.70
2022-08-12T20:47:19.878Z,0.80
2022-08-12T20:49:54.813Z,0.77
2022-08-12T20:52:24.415Z,0.88
2022-08-12T20:54:51.025Z,0.77
2022-08-12T20:57:19.420Z,0.88
2022-08-12T20:59:49.549Z,0.75
2022-08-12T21:02:18.781Z,0.70
2022-08-12T21:05:16.092Z,0.80
2022-08-12T21:07:47.826Z,0.73
2022-08-12T21:10:18.980Z,0.80
2022-08-12T21:12:47.609Z,0.88
2022-08-12T21:15:16.596Z,0.93
2022-08-12T21:18:08.092Z,0.77
2022-08-12T21:20:38.368Z,0.85
2022-08-12T21:23:06.376Z,1.00
2022-08-12T21:25:44.569Z,0.90
2022-08-12T21:28:12.912Z,1.10
2022-08-12T21:30:54.730Z,0.80
2022-08-12T21:33:30.997Z,0.90
2022-08-12T21:35:58.130Z,0.77
2022-08-12T21:38:34.926Z,0.85
2022-08-12T21:41:09.042Z,0.90
2022-08-12T21:43:44.521Z,0.90
2022-08-12T21:46:23.360Z,0.80
2022-08-12T21:49:04.596Z,0.77
2022-08-12T21:51:49.426Z,0.90
2022-08-12T21:54:21.603Z,0.77
2022-08-12T21:56:49.722Z,0.80
2022-08-12T21:59:17.679Z,0.88
2022-08-12T22:01:48.940Z,0.90
2022-08-12T22:04:34.903Z,0.85
2022-08-12T22:07:01.537Z,0.90
2022-08-12T22:09:29.264Z,0.90
2022-08-12T22:12:21.098Z,0.70
2022-08-12T22:14:48.386Z,0.70
2022-08-12T22:17:15.579Z,0.90
2022-08-12T22:19:49.543Z,1.00
2022-08-12T22:22:16.668Z,0.75
2022-08-12T22:24:45.461Z,0.80
2022-08-12T22:27:28.222Z,0.98
2022-08-12T22:30:19.962Z,0.80
2022-08-12T22:32:51.238Z,1.23
2022-08-12T22:35:55.783Z,1.40
2022-08-12T22:38:20.241Z,0.95
2022-08-12T22:40:51.119Z,1.00
2022-08-12T22:43:36.631Z,0.90
2022-08-12T22:46:41.398Z,1.20
2022-08-12T22:49:20.989Z,1.10
2022-08-12T22:52:01.144Z,1.02
2022-08-12T22:54:36.939Z,1.05
2022-08-12T22:57:12.075Z,1.02
2022-08-12T22:59:55.866Z,1.20
2022-08-12T23:02:28.842Z,0.90
2022-08-12T23:04:57.422Z,1.00
2022-08-12T23:07:24.601Z,1.10
2022-08-12T23:09:51.473Z,1.10
2022-08-12T23:12:46.515Z,0.90
2022-08-12T23:15:14.128Z,1.30
2022-08-12T23:17:41.786Z,1.20
2022-08-12T23:20:11.282Z,0.70
2022-08-12T23:22:38.516Z,1.08
2022-08-12T23:25:07.745Z,1.02
2022-08-12T23:28:04.322Z,1.00
2022-08-12T23:30:31.024Z,1.10
2022-08-12T23:33:00.636Z,1.10
2022-08-12T23:35:45.276Z,1.10
2022-08-12T23:38:31.082Z,1.00
2022-08-12T23:41:00.024Z,0.93
2022-08-12T23:43:27.356Z,0.98
2022-08-12T23:46:08.837Z,1.10
2022-08-12T23:48:35.696Z,1.17
2022-08-12T23:51:03.886Z,1.10
2022-08-12T23:53:49.895Z,1.00
2022-08-12T23:56:16.343Z,0.90
2022-08-12T23:58:52.705Z,1.15
